Lloyd, Kentucky
Current Conditions -  °F | °C
As of 4:35 PM on Friday 24 Oct 2014 (Local Time) from KDWU Reporting Station
Clear Clear  
Wind Chill: 64°   Ceiling: Unl
Heat Index: 64°   Visibility: 10mi
Dew Point: 39°   Wind: 5mph
Humidity: 40%   Direction: 270°W
Pressure: 30.02"   Gusts: NA
Location:  38.62°N, 82.86°W
Report Text: KDWU 242035Z AUTO 27004KT 10SM CLR 18/04 A3002 RMK AO1
Loading
Personal Weather Stations






























Interactive Weather Map
Tropical Storm Tracking
New forecast layout! Learn more

10-Day Weather Forecast

Advertisements
Track Severe Weather on mobile